Time;durP1;ratioP1;P1;durP2;ratioP2;P2;SDS_P1;SDS_P2;PMS_P1;PMS_P2;Temp;Humidity;BMP_temperature;BMP_pressure;BME280_temperature;BME280_humidity;BME280_pressure;Samples;Min_cycle;Max_cycle;Signal;HPM_P1;HPM_P2
2021/04/20 00:01:53;;;;;;;5.68;3.50;;;11.00;99.90;;;;;;5074525;28;20045;-47
2021/04/20 00:04:20;;;;;;;4.45;3.53;;;11.00;99.90;;;;;;5074278;28;20044;-47
2021/04/20 00:06:54;;;;;;;5.72;4.07;;;11.00;99.90;;;;;;5058646;28;20056;-46
2021/04/20 00:09:29;;;;;;;5.10;3.22;;;11.00;99.90;;;;;;5073090;28;20062;-46
2021/04/20 00:11:57;;;;;;;7.43;3.65;;;11.00;99.90;;;;;;5075715;28;20059;-47
2021/04/20 00:14:26;;;;;;;5.88;3.80;;;11.00;99.90;;;;;;5074440;28;20402;-46
2021/04/20 00:16:53;;;;;;;6.28;3.80;;;11.00;99.90;;;;;;5074517;28;20078;-48
2021/04/20 00:19:20;;;;;;;7.50;4.05;;;11.00;99.90;;;;;;5073746;28;20087;-46
2021/04/20 00:21:50;;;;;;;5.18;3.30;;;10.90;99.90;;;;;;5058396;28;20044;-46
2021/04/20 00:24:20;;;;;;;5.82;3.65;;;10.90;99.90;;;;;;5074241;28;20131;-46
2021/04/20 00:26:47;;;;;;;7.97;4.20;;;10.90;99.90;;;;;;5074295;28;20453;-45
2021/04/20 00:29:15;;;;;;;5.95;2.97;;;10.90;99.90;;;;;;5073649;28;20051;-46
2021/04/20 00:31:45;;;;;;;5.78;3.53;;;10.90;99.90;;;;;;5073221;28;20456;-51
2021/04/20 00:34:12;;;;;;;7.70;3.97;;;10.90;99.90;;;;;;5073910;28;20150;-53
2021/04/20 00:36:45;;;;;;;5.22;3.50;;;10.90;99.90;;;;;;5055439;28;20048;-46
2021/04/20 00:39:14;;;;;;;6.28;4.05;;;10.90;99.90;;;;;;5073259;28;20045;-46
2021/04/20 00:41:41;;;;;;;5.70;3.38;;;10.90;99.90;;;;;;5057004;28;20057;-48
2021/04/20 00:44:08;;;;;;;5.72;3.67;;;10.90;99.90;;;;;;5072833;28;20499;-47
2021/04/20 00:46:50;;;;;;;4.78;3.28;;;10.90;99.90;;;;;;5074179;28;20056;-45
2021/04/20 00:49:20;;;;;;;5.43;3.55;;;10.90;99.90;;;;;;5073181;28;20048;-50
2021/04/20 00:51:51;;;;;;;5.78;3.55;;;10.90;99.90;;;;;;5073774;28;20058;-46
2021/04/20 00:54:22;;;;;;;7.85;3.22;;;10.90;99.90;;;;;;5056192;28;20058;-49
2021/04/20 00:56:50;;;;;;;6.32;4.25;;;10.90;99.90;;;;;;5056889;28;20135;-47
2021/04/20 00:59:17;;;;;;;6.53;3.28;;;10.90;99.90;;;;;;5073091;28;20048;-52
2021/04/20 01:01:48;;;;;;;6.32;3.55;;;10.90;99.90;;;;;;5073578;28;20055;-48
2021/04/20 01:04:17;;;;;;;7.85;4.10;;;10.80;99.90;;;;;;5073372;28;20533;-46
2021/04/20 01:06:51;;;;;;;4.45;2.90;;;10.80;99.90;;;;;;5072168;28;20075;-48
2021/04/20 01:09:18;;;;;;;5.55;3.13;;;10.80;99.90;;;;;;5074171;28;20094;-45
2021/04/20 01:11:53;;;;;;;6.32;3.95;;;10.80;99.90;;;;;;5056834;28;20045;-47
2021/04/20 01:14:23;;;;;;;5.63;3.63;;;10.80;99.90;;;;;;5056378;28;20099;-46
2021/04/20 01:16:50;;;;;;;5.80;3.58;;;10.80;99.90;;;;;;5073123;28;20044;-46
2021/04/20 01:19:21;;;;;;;6.93;4.15;;;10.70;99.90;;;;;;5072502;28;20454;-46
2021/04/20 01:21:50;;;;;;;4.07;2.90;;;10.80;99.90;;;;;;5073242;28;20094;-46
2021/04/20 01:24:28;;;;;;;7.05;4.20;;;10.70;99.90;;;;;;5073361;28;20094;-48
2021/04/20 01:26:58;;;;;;;8.05;4.13;;;10.70;99.90;;;;;;5040798;28;20083;-46
2021/04/20 01:29:29;;;;;;;5.88;4.38;;;10.70;99.90;;;;;;5056100;28;20040;-47
2021/04/20 01:31:57;;;;;;;6.25;4.70;;;10.70;99.90;;;;;;5056727;28;20056;-46
2021/04/20 01:34:25;;;;;;;6.47;4.90;;;10.70;99.90;;;;;;5072768;28;20495;-45
2021/04/20 01:36:52;;;;;;;6.95;5.13;;;10.70;99.90;;;;;;5039732;28;20048;-45
2021/04/20 01:39:20;;;;;;;7.55;4.13;;;10.70;99.90;;;;;;5054489;28;20180;-45
2021/04/20 01:41:51;;;;;;;9.05;6.25;;;10.70;99.90;;;;;;5056072;28;20136;-47
2021/04/20 01:44:21;;;;;;;8.10;5.00;;;10.60;99.90;;;;;;5030492;28;20136;-46
2021/04/20 01:46:48;;;;;;;7.45;4.60;;;10.60;99.90;;;;;;5072834;28;20518;-46
2021/04/20 01:49:17;;;;;;;7.25;4.82;;;10.60;99.90;;;;;;5038954;28;20410;-51
2021/04/20 01:51:53;;;;;;;7.35;5.22;;;10.60;99.90;;;;;;5056779;28;20063;-50
2021/04/20 01:54:21;;;;;;;9.35;5.40;;;10.60;99.90;;;;;;5055425;28;20055;-49
2021/04/20 01:56:54;;;;;;;7.68;5.00;;;10.60;99.90;;;;;;5073548;28;20048;-47
2021/04/20 01:59:27;;;;;;;8.38;5.65;;;10.60;99.90;;;;;;5071750;28;20053;-51
2021/04/20 02:01:56;;;;;;;8.27;4.60;;;10.70;99.90;;;;;;5073553;28;20056;-51
2021/04/20 02:04:24;;;;;;;7.75;4.70;;;10.70;99.90;;;;;;5073031;28;20048;-50
2021/04/20 02:06:52;;;;;;;9.00;5.43;;;10.70;99.90;;;;;;5072337;28;20084;-46
2021/04/20 02:09:20;;;;;;;9.18;5.35;;;10.70;99.90;;;;;;5071731;28;20044;-46
2021/04/20 02:11:47;;;;;;;8.57;5.50;;;10.70;99.90;;;;;;5071983;28;20865;-46
2021/04/20 02:14:15;;;;;;;8.32;5.63;;;10.70;99.90;;;;;;5071758;28;20040;-46
2021/04/20 02:16:45;;;;;;;9.77;4.90;;;10.70;99.90;;;;;;5070123;28;20045;-46
2021/04/20 02:19:14;;;;;;;7.90;4.85;;;10.70;99.90;;;;;;5072709;28;20050;-51
2021/04/20 02:21:42;;;;;;;12.38;5.65;;;10.70;99.90;;;;;;5073135;28;20075;-51
2021/04/20 02:24:13;;;;;;;6.03;4.30;;;10.60;99.90;;;;;;5071257;28;20052;-48
2021/04/20 02:26:42;;;;;;;10.85;5.75;;;10.60;99.90;;;;;;5071908;28;20052;-46
2021/04/20 02:29:10;;;;;;;7.72;5.13;;;10.60;99.90;;;;;;5054719;28;20052;-47
2021/04/20 02:31:42;;;;;;;6.35;4.50;;;10.60;99.90;;;;;;5055687;28;20108;-46
2021/04/20 02:34:19;;;;;;;6.95;5.32;;;10.60;99.90;;;;;;5054882;28;20407;-46
2021/04/20 02:36:49;;;;;;;8.80;5.88;;;10.60;99.90;;;;;;5071360;28;20072;-49
2021/04/20 02:39:17;;;;;;;10.35;4.68;;;10.60;99.90;;;;;;5071281;28;20478;-47
2021/04/20 02:41:50;;;;;;;6.85;4.55;;;10.50;99.90;;;;;;5070078;28;20083;-45
2021/04/20 02:44:19;;;;;;;6.88;5.13;;;10.60;99.90;;;;;;5054735;28;20186;-49
2021/04/20 02:46:46;;;;;;;11.15;5.80;;;10.50;99.90;;;;;;5071852;28;20055;-47
2021/04/20 02:49:14;;;;;;;10.13;4.88;;;10.60;99.90;;;;;;5071036;28;20048;-47
2021/04/20 02:51:43;;;;;;;9.82;5.85;;;10.50;99.90;;;;;;5072896;28;20498;-48
2021/04/20 02:54:11;;;;;;;9.30;4.93;;;10.50;99.90;;;;;;5054729;28;20055;-46
2021/04/20 02:56:41;;;;;;;8.77;5.00;;;10.50;99.90;;;;;;5053039;28;20048;-45
2021/04/20 02:59:11;;;;;;;8.82;5.07;;;10.50;99.90;;;;;;5041529;28;20060;-50
2021/04/20 03:01:42;;;;;;;8.15;5.03;;;10.40;99.90;;;;;;5071346;28;20079;-45
2021/04/20 03:04:16;;;;;;;9.88;5.03;;;10.40;99.90;;;;;;5055168;28;20102;-45
2021/04/20 03:06:45;;;;;;;6.90;6.20;;;10.40;99.90;;;;;;5071153;28;20045;-51
2021/04/20 03:09:15;;;;;;;6.90;4.75;;;10.30;99.90;;;;;;5053877;28;20044;-48
2021/04/20 03:11:57;;;;;;;9.63;5.20;;;10.30;99.90;;;;;;5051392;28;20490;-48
2021/04/20 03:14:28;;;;;;;8.10;5.53;;;10.30;99.90;;;;;;5055499;28;20128;-48
2021/04/20 03:16:58;;;;;;;11.32;5.78;;;10.20;99.90;;;;;;5071821;28;20049;-48
2021/04/20 03:19:26;;;;;;;10.50;6.72;;;10.20;99.90;;;;;;5072295;28;20052;-51
2021/04/20 03:22:00;;;;;;;12.32;6.53;;;10.20;99.90;;;;;;5072727;28;20538;-50
2021/04/20 03:24:31;;;;;;;11.55;6.30;;;10.20;99.90;;;;;;5072292;28;20044;-48
2021/04/20 03:26:59;;;;;;;13.23;7.22;;;10.20;99.90;;;;;;5055212;28;20060;-46
2021/04/20 03:29:30;;;;;;;8.60;6.40;;;10.20;99.90;;;;;;5038189;28;20501;-45
2021/04/20 03:31:57;;;;;;;9.20;6.53;;;10.10;99.90;;;;;;5072827;28;20127;-45
2021/04/20 03:34:38;;;;;;;8.63;6.55;;;10.10;99.90;;;;;;5070599;28;20059;-46
2021/04/20 03:37:35;;;;;;;8.45;6.05;;;10.10;99.90;;;;;;5055472;28;20131;-45
2021/04/20 03:40:10;;;;;;;10.68;6.65;;;10.10;99.90;;;;;;5075727;28;20048;-46
2021/04/20 03:42:44;;;;;;;9.05;5.68;;;10.10;99.90;;;;;;5068363;28;20049;-45
2021/04/20 03:45:21;;;;;;;9.55;5.13;;;10.00;99.90;;;;;;5073802;28;20053;-46
2021/04/20 03:47:53;;;;;;;10.13;5.75;;;10.00;99.90;;;;;;5075671;28;20098;-45
2021/04/20 03:50:27;;;;;;;9.88;5.88;;;10.00;99.90;;;;;;5074607;28;20048;-45
2021/04/20 03:53:00;;;;;;;7.35;4.65;;;10.00;99.90;;;;;;5076202;28;20511;-45
2021/04/20 03:55:32;;;;;;;10.93;5.75;;;9.90;99.90;;;;;;5072344;28;20490;-45
2021/04/20 03:58:05;;;;;;;9.82;6.40;;;10.00;99.90;;;;;;5074986;28;20059;-47
2021/04/20 04:00:35;;;;;;;10.90;5.70;;;9.90;99.90;;;;;;5074407;28;20052;-45
2021/04/20 04:03:09;;;;;;;10.18;6.50;;;9.90;99.90;;;;;;5049505;28;20444;-46
2021/04/20 04:05:40;;;;;;;8.27;5.15;;;9.90;99.90;;;;;;5057526;28;20052;-46
2021/04/20 04:08:09;;;;;;;7.95;5.97;;;9.90;99.90;;;;;;5069102;28;20080;-45
2021/04/20 04:10:39;;;;;;;9.32;6.05;;;9.90;99.90;;;;;;5070240;28;20132;-45
2021/04/20 04:13:08;;;;;;;8.55;5.38;;;9.90;99.90;;;;;;5070489;28;20041;-46
2021/04/20 04:15:41;;;;;;;9.38;6.05;;;9.90;99.90;;;;;;5074021;28;20044;-45
2021/04/20 04:18:14;;;;;;;10.00;5.00;;;9.90;99.90;;;;;;5074566;28;20053;-46
2021/04/20 04:20:48;;;;;;;8.30;5.18;;;9.90;99.90;;;;;;5073924;28;20080;-45
2021/04/20 04:23:20;;;;;;;10.35;6.35;;;9.90;99.90;;;;;;5072880;28;20047;-46
2021/04/20 04:26:08;;;;;;;9.68;6.15;;;9.90;99.90;;;;;;5073139;28;20129;-52
2021/04/20 04:28:39;;;;;;;8.85;5.05;;;9.90;99.90;;;;;;5071638;28;20048;-49
2021/04/20 04:31:10;;;;;;;8.95;5.20;;;10.00;99.90;;;;;;5072981;28;20054;-46
2021/04/20 04:33:41;;;;;;;16.80;8.00;;;10.10;99.90;;;;;;5070402;28;20045;-49
2021/04/20 04:36:10;;;;;;;14.75;9.85;;;10.20;99.90;;;;;;5053647;28;20071;-46
2021/04/20 04:38:42;;;;;;;13.60;8.73;;;10.20;99.90;;;;;;5054292;28;20491;-46
2021/04/20 04:41:12;;;;;;;12.48;7.82;;;10.30;99.90;;;;;;5070295;28;20449;-49
2021/04/20 04:43:46;;;;;;;9.80;8.07;;;10.50;99.90;;;;;;5073668;28;20085;-50
2021/04/20 04:46:23;;;;;;;12.68;8.10;;;10.60;99.90;;;;;;5072140;28;20128;-46
2021/04/20 04:48:55;;;;;;;10.63;7.05;;;10.80;99.90;;;;;;5073486;28;20052;-46
2021/04/20 04:51:27;;;;;;;9.75;6.40;;;10.90;99.90;;;;;;5089553;28;20068;-45
2021/04/20 04:53:59;;;;;;;13.40;7.95;;;11.10;99.90;;;;;;5074117;28;20041;-46
2021/04/20 04:56:33;;;;;;;13.57;7.95;;;11.20;99.90;;;;;;5074407;28;20048;-46
2021/04/20 04:59:02;;;;;;;8.93;6.53;;;11.40;99.90;;;;;;5057033;28;20052;-49
2021/04/20 05:01:30;;;;;;;8.35;5.25;;;11.60;99.90;;;;;;5071383;28;20058;-50
2021/04/20 05:04:08;;;;;;;23.77;7.15;;;11.70;99.90;;;;;;5074066;28;20056;-49
2021/04/20 05:06:48;;;;;;;11.32;7.32;;;11.90;99.90;;;;;;5072860;28;20059;-46
2021/04/20 05:09:21;;;;;;;13.40;7.40;;;12.00;99.90;;;;;;5073325;28;20376;-48
2021/04/20 05:11:52;;;;;;;10.25;6.13;;;12.20;99.90;;;;;;5055856;28;20036;-45
2021/04/20 05:14:23;;;;;;;9.07;5.78;;;12.40;99.90;;;;;;5056462;28;20057;-46
2021/04/20 05:16:53;;;;;;;10.60;5.50;;;12.50;99.90;;;;;;5072148;28;20544;-46
2021/04/20 05:19:35;;;;;;;8.43;4.97;;;12.60;99.90;;;;;;5072656;28;20052;-46
2021/04/20 05:22:05;;;;;;;8.95;5.68;;;12.80;99.90;;;;;;5078976;28;20489;-47
2021/04/20 05:24:33;;;;;;;7.18;5.22;;;12.90;99.90;;;;;;5055663;28;20139;-49
2021/04/20 05:27:06;;;;;;;7.57;5.10;;;13.10;99.90;;;;;;5056990;28;20048;-46
2021/04/20 05:29:34;;;;;;;9.63;5.40;;;13.20;99.90;;;;;;5072075;28;20052;-47
2021/04/20 05:32:02;;;;;;;10.45;6.32;;;13.30;99.90;;;;;;5073141;28;20054;-47
2021/04/20 05:34:32;;;;;;;8.68;4.97;;;13.50;99.90;;;;;;5072328;28;20683;-46
2021/04/20 05:37:02;;;;;;;10.82;5.15;;;13.60;99.90;;;;;;5049062;28;20045;-46
2021/04/20 05:39:29;;;;;;;8.15;5.53;;;13.80;99.90;;;;;;5038626;28;20048;-46
2021/04/20 05:41:57;;;;;;;8.75;5.95;;;13.90;99.60;;;;;;5072156;28;20559;-46
2021/04/20 05:44:24;;;;;;;11.30;6.00;;;14.00;99.50;;;;;;5068957;28;20524;-46
2021/04/20 05:46:55;;;;;;;9.18;5.43;;;14.20;99.50;;;;;;5072438;28;20047;-46
2021/04/20 05:49:26;;;;;;;9.68;5.82;;;14.30;99.30;;;;;;5033247;28;20060;-46
2021/04/20 05:51:57;;;;;;;10.75;5.75;;;14.40;99.40;;;;;;5056123;28;20098;-47
2021/04/20 05:54:24;;;;;;;6.57;4.75;;;14.60;99.30;;;;;;5070981;28;20049;-47
2021/04/20 05:56:57;;;;;;;9.50;6.22;;;14.70;99.30;;;;;;5072500;28;20052;-46
2021/04/20 05:59:24;;;;;;;8.93;5.28;;;14.80;98.80;;;;;;5054230;28;20091;-46
2021/04/20 06:01:56;;;;;;;6.32;4.25;;;14.90;98.70;;;;;;5056045;28;20055;-46
2021/04/20 06:04:30;;;;;;;9.75;5.40;;;14.90;98.70;;;;;;5056621;28;20048;-46
2021/04/20 06:07:08;;;;;;;7.15;4.75;;;15.10;99.00;;;;;;5070103;28;20053;-46
2021/04/20 06:09:38;;;;;;;7.38;4.80;;;15.20;98.80;;;;;;5071541;28;20037;-46
2021/04/20 06:12:10;;;;;;;6.85;5.00;;;15.30;98.60;;;;;;5052519;28;20040;-46
2021/04/20 06:14:39;;;;;;;6.32;4.30;;;15.40;98.60;;;;;;5053195;28;20471;-46
2021/04/20 06:17:13;;;;;;;9.80;5.35;;;15.50;98.20;;;;;;5071081;28;20058;-46
2021/04/20 06:19:42;;;;;;;7.63;5.40;;;15.60;98.00;;;;;;5068721;28;20043;-47
2021/04/20 06:22:17;;;;;;;5.65;4.20;;;15.60;97.90;;;;;;5062707;28;20080;-47
2021/04/20 06:24:53;;;;;;;6.38;5.38;;;15.70;97.50;;;;;;5048006;28;20046;-46
2021/04/20 06:27:22;;;;;;;6.88;5.57;;;15.90;96.90;;;;;;5048146;28;20049;-47
2021/04/20 06:29:49;;;;;;;7.20;4.65;;;15.90;96.30;;;;;;5061526;28;20050;-46
2021/04/20 06:32:20;;;;;;;7.70;4.53;;;16.00;96.30;;;;;;5060326;28;20075;-47
2021/04/20 06:34:52;;;;;;;8.93;4.97;;;16.10;96.00;;;;;;5046745;28;20056;-48
2021/04/20 06:37:32;;;;;;;8.15;4.55;;;16.30;96.10;;;;;;5059680;28;20102;-46
2021/04/20 06:39:59;;;;;;;7.78;4.22;;;16.40;96.30;;;;;;5061249;28;20040;-46
2021/04/20 06:42:30;;;;;;;7.72;4.20;;;16.50;95.70;;;;;;5058966;28;20052;-48
2021/04/20 06:45:12;;;;;;;8.10;4.63;;;16.60;95.80;;;;;;5061185;28;20052;-46
2021/04/20 06:47:53;;;;;;;9.18;5.28;;;16.70;95.50;;;;;;5045128;28;20045;-46
2021/04/20 06:50:24;;;;;;;9.60;4.63;;;16.90;95.40;;;;;;5060012;28;20533;-47
2021/04/20 06:53:03;;;;;;;7.45;4.70;;;17.00;94.80;;;;;;5071239;28;20518;-48
2021/04/20 06:56:01;;;;;;;7.18;4.45;;;17.00;94.50;;;;;;5071349;28;20049;-47
2021/04/20 06:59:07;;;;;;;8.68;4.53;;;17.10;94.10;;;;;;5071939;28;20048;-47
2021/04/20 07:01:45;;;;;;;7.55;4.90;;;17.20;94.10;;;;;;5067084;28;20044;-47
2021/04/20 07:04:38;;;;;;;9.35;5.13;;;17.30;93.90;;;;;;5062998;28;20041;-44
2021/04/20 07:07:15;;;;;;;6.93;4.57;;;17.40;93.70;;;;;;5058271;28;20057;-46
2021/04/20 07:09:55;;;;;;;9.15;4.97;;;17.50;93.40;;;;;;5043058;28;20116;-45
2021/04/20 07:12:29;;;;;;;8.98;5.40;;;17.60;93.00;;;;;;5059136;28;20514;-48
2021/04/20 07:14:56;;;;;;;8.25;4.80;;;17.80;92.60;;;;;;5059371;28;20048;-45
2021/04/20 07:17:36;;;;;;;7.60;4.63;;;17.80;92.10;;;;;;5076462;28;20059;-44
2021/04/20 07:20:45;;;;;;;7.25;4.95;;;17.90;93.00;;;;;;5074956;28;20063;-45
2021/04/20 07:23:44;;;;;;;8.18;4.63;;;18.00;92.40;;;;;;5089033;28;20495;-44
2021/04/20 07:26:16;;;;;;;12.18;4.82;;;18.10;91.80;;;;;;5063169;28;20041;-44
2021/04/20 07:29:02;;;;;;;8.63;5.55;;;18.20;91.90;;;;;;5058833;28;20493;-44
2021/04/20 07:32:07;;;;;;;6.50;4.27;;;18.30;90.70;;;;;;5036362;28;20056;-44
2021/04/20 07:34:59;;;;;;;9.48;4.43;;;18.40;90.40;;;;;;5071553;28;20048;-44
2021/04/20 07:37:48;;;;;;;7.60;4.63;;;18.50;90.40;;;;;;5058922;28;20068;-45
2021/04/20 07:40:20;;;;;;;6.72;4.05;;;18.60;90.90;;;;;;5075584;28;20052;-45
2021/04/20 07:43:24;;;;;;;6.57;4.00;;;18.80;90.60;;;;;;5053782;28;20060;-45
2021/04/20 07:45:54;;;;;;;5.70;3.95;;;18.80;90.10;;;;;;5068718;28;20056;-44
2021/04/20 07:48:49;;;;;;;4.70;3.65;;;18.90;88.20;;;;;;5055260;28;20045;-45
2021/04/20 07:51:54;;;;;;;5.60;3.08;;;19.00;87.40;;;;;;5073287;28;20526;-45
2021/04/20 07:54:49;;;;;;;5.93;3.60;;;19.10;88.30;;;;;;4990754;28;20087;-44
2021/04/20 07:57:24;;;;;;;6.10;3.78;;;19.20;86.60;;;;;;5055880;28;20059;-44
2021/04/20 08:00:15;;;;;;;6.50;3.50;;;19.20;86.10;;;;;;5041402;28;20073;-44
2021/04/20 08:03:08;;;;;;;7.63;4.03;;;19.30;85.80;;;;;;5047684;28;20407;-44
2021/04/20 08:06:05;;;;;;;7.00;4.18;;;19.30;85.20;;;;;;5060125;28;20486;-44
2021/04/20 08:08:51;;;;;;;4.95;3.55;;;19.40;84.80;;;;;;5037847;28;20052;-46
2021/04/20 08:11:29;;;;;;;6.55;3.30;;;19.40;85.00;;;;;;5072049;28;20050;-45
2021/04/20 08:14:15;;;;;;;5.03;3.28;;;19.40;85.60;;;;;;5057882;28;20129;-45
2021/04/20 08:17:06;;;;;;;7.32;3.67;;;19.50;85.10;;;;;;5073486;28;20063;-45
2021/04/20 08:19:36;;;;;;;6.28;3.17;;;19.50;83.80;;;;;;5073492;28;20045;-46
2021/04/20 08:22:16;;;;;;;5.43;3.22;;;19.50;83.10;;;;;;5073010;28;20070;-45
2021/04/20 08:24:51;;;;;;;4.72;3.15;;;19.50;82.40;;;;;;5074751;28;20437;-44
2021/04/20 08:27:42;;;;;;;4.15;3.00;;;19.60;82.40;;;;;;5057142;28;20045;-45
2021/04/20 08:30:26;;;;;;;5.72;3.15;;;19.60;82.10;;;;;;5074219;28;20053;-44
2021/04/20 08:33:06;;;;;;;6.40;3.07;;;19.60;80.60;;;;;;5074179;28;20055;-51
2021/04/20 08:35:36;;;;;;;5.90;3.60;;;19.60;81.70;;;;;;5074574;28;20295;-49
2021/04/20 08:38:37;;;;;;;10.43;3.97;;;19.60;79.90;;;;;;5074208;28;20083;-45
2021/04/20 08:41:28;;;;;;;5.32;3.13;;;19.60;80.60;;;;;;5069266;28;20057;-44
2021/04/20 08:44:12;;;;;;;6.80;3.38;;;19.70;80.80;;;;;;5039873;28;20131;-45
2021/04/20 08:47:11;;;;;;;4.15;2.72;;;19.70;81.00;;;;;;5074859;28;20063;-45
2021/04/20 08:49:45;;;;;;;6.68;3.08;;;19.80;80.30;;;;;;5072524;28;20117;-45
2021/04/20 08:52:32;;;;;;;5.47;3.40;;;19.90;79.60;;;;;;5057355;28;20513;-44
2021/04/20 08:55:23;;;;;;;5.40;2.95;;;19.90;78.90;;;;;;5074079;28;20049;-45
2021/04/20 08:58:18;;;;;;;5.45;3.08;;;19.60;79.80;;;;;;5068232;28;20053;-44
2021/04/20 09:01:08;;;;;;;5.57;2.78;;;19.30;79.60;;;;;;5058893;28;20056;-44
2021/04/20 09:04:10;;;;;;;4.80;2.40;;;19.20;79.50;;;;;;5053688;28;20045;-45
2021/04/20 09:06:54;;;;;;;4.35;3.75;;;19.30;79.60;;;;;;5056219;28;20475;-46
2021/04/20 09:09:28;;;;;;;4.53;2.83;;;19.40;76.50;;;;;;5072891;28;21098;-45
2021/04/20 09:12:05;;;;;;;5.03;3.40;;;19.40;75.20;;;;;;5073271;28;20048;-44
2021/04/20 09:14:40;;;;;;;4.70;2.80;;;19.00;75.10;;;;;;5072231;28;20449;-45
2021/04/20 09:17:15;;;;;;;4.30;2.90;;;19.10;74.90;;;;;;5072913;28;20051;-44
2021/04/20 09:19:52;;;;;;;6.05;3.83;;;19.00;75.60;;;;;;5073681;28;20109;-47
2021/04/20 09:22:22;;;;;;;;;;;18.90;77.10;;;;;;5073504;28;20060;-45
2021/04/20 09:25:24;;;;;;;4.95;3.10;;;18.90;78.00;;;;;;5071198;28;19921;-44
2021/04/20 09:28:16;;;;;;;4.45;2.60;;;19.10;78.00;;;;;;5035546;28;20483;-45
2021/04/20 09:31:16;;;;;;;3.42;2.75;;;19.20;77.30;;;;;;5067534;28;20051;-45
2021/04/20 09:33:55;;;;;;;4.57;3.10;;;19.20;78.50;;;;;;4971968;28;20064;-44
2021/04/20 09:36:24;;;;;;;4.33;2.50;;;19.40;78.50;;;;;;5072971;28;20154;-45
2021/04/20 09:38:53;;;;;;;4.43;2.75;;;19.60;75.00;;;;;;5073041;28;20051;-45
2021/04/20 09:41:35;;;;;;;5.70;2.58;;;19.50;74.70;;;;;;5070916;28;20056;-46
2021/04/20 09:44:25;;;;;;;3.30;2.33;;;19.30;73.90;;;;;;5072443;28;20070;-45
2021/04/20 09:47:15;;;;;;;4.60;2.63;;;19.10;76.20;;;;;;5061497;28;20407;-46
2021/04/20 09:49:52;;;;;;;4.32;2.72;;;18.90;76.90;;;;;;5073148;28;20041;-45
2021/04/20 09:52:22;;;;;;;4.85;3.10;;;19.00;78.00;;;;;;5073666;28;20064;-45
2021/04/20 09:54:55;;;;;;;5.65;3.70;;;19.20;78.10;;;;;;5073474;28;20105;-46
2021/04/20 09:57:35;;;;;;;6.03;3.28;;;19.30;77.70;;;;;;5070363;28;20064;-45
2021/04/20 10:00:13;;;;;;;4.40;2.78;;;19.40;77.20;;;;;;5066933;28;20052;-44
2021/04/20 10:03:11;;;;;;;4.47;2.95;;;19.50;77.00;;;;;;5055908;28;20047;-47
2021/04/20 10:05:42;;;;;;;4.57;2.72;;;19.60;75.80;;;;;;5065281;28;20044;-44
2021/04/20 10:09:04;;;;;;;4.20;2.17;;;19.40;74.00;;;;;;5070918;28;20053;-46
2021/04/20 10:12:04;;;;;;;4.75;2.90;;;19.20;75.00;;;;;;5047817;28;20434;-44
2021/04/20 10:14:57;;;;;;;4.38;2.42;;;19.30;77.60;;;;;;5056272;28;20147;-46
2021/04/20 10:17:53;;;;;;;4.03;2.70;;;19.50;78.50;;;;;;5072186;28;20052;-44
2021/04/20 10:20:37;;;;;;;5.88;2.38;;;19.70;78.30;;;;;;5068487;28;20054;-45
2021/04/20 10:23:50;;;;;;;6.35;2.40;;;19.90;76.60;;;;;;5071810;28;20070;-46
2021/04/20 10:26:18;;;;;;;3.45;2.13;;;19.60;76.30;;;;;;4974814;28;20053;-45
2021/04/20 10:28:56;;;;;;;4.07;1.85;;;19.80;77.40;;;;;;5010603;28;20064;-46
2021/04/20 10:31:36;;;;;;;4.55;2.30;;;20.00;77.50;;;;;;5071948;28;20052;-44
2021/04/20 10:34:04;;;;;;;4.60;2.05;;;19.90;76.40;;;;;;5072643;28;20110;-44
2021/04/20 10:36:35;;;;;;;2.88;1.70;;;19.90;77.20;;;;;;5072069;28;20070;-43
2021/04/20 10:39:07;;;;;;;4.53;2.97;;;19.90;78.70;;;;;;5072452;28;20049;-49
2021/04/20 10:41:38;;;;;;;15.95;1.95;;;19.80;76.80;;;;;;5069556;28;20110;-43
2021/04/20 10:44:15;;;;;;;3.05;2.03;;;19.90;76.40;;;;;;5072516;28;20486;-44
2021/04/20 10:46:49;;;;;;;7.82;2.70;;;19.70;75.70;;;;;;5070369;28;20075;-45
2021/04/20 10:49:22;;;;;;;4.30;2.03;;;19.40;77.80;;;;;;5072130;28;20052;-43
2021/04/20 10:51:57;;;;;;;4.38;2.20;;;19.30;78.10;;;;;;5071459;28;20062;-43
2021/04/20 10:54:42;;;;;;;4.07;2.63;;;19.20;78.00;;;;;;5038067;28;20045;-43
2021/04/20 10:57:11;;;;;;;2.42;1.48;;;19.00;77.00;;;;;;5069386;28;20078;-44
2021/04/20 10:59:50;;;;;;;2.60;1.85;;;18.90;77.00;;;;;;5070819;28;20106;-43
2021/04/20 11:02:22;;;;;;;2.42;1.40;;;18.70;78.60;;;;;;5054728;28;20049;-43
2021/04/20 11:04:54;;;;;;;3.27;2.10;;;19.00;79.20;;;;;;5068268;28;20048;-43
2021/04/20 11:07:27;;;;;;;4.00;2.45;;;19.00;79.00;;;;;;5062618;28;20040;-44
2021/04/20 11:10:05;;;;;;;2.88;1.73;;;19.00;78.50;;;;;;5037820;28;20060;-43
2021/04/20 11:12:33;;;;;;;4.93;1.83;;;19.10;78.40;;;;;;5063976;28;20114;-43
2021/04/20 11:15:00;;;;;;;3.15;1.55;;;19.20;77.10;;;;;;5067694;28;20494;-45
2021/04/20 11:17:49;;;;;;;2.83;1.45;;;19.20;78.30;;;;;;5062639;28;20040;-44
2021/04/20 11:20:30;;;;;;;2.85;1.77;;;19.20;77.60;;;;;;5062412;28;20045;-44
2021/04/20 11:23:07;;;;;;;3.90;1.92;;;19.10;78.50;;;;;;5071218;28;20058;-43
2021/04/20 11:25:43;;;;;;;3.10;1.80;;;19.10;77.60;;;;;;5072065;28;20491;-54
2021/04/20 11:28:29;;;;;;;;;;;19.20;78.30;;;;;;5072064;28;20063;-43
2021/04/20 11:30:59;;;;;;;4.30;1.60;;;19.40;79.10;;;;;;5067133;28;19920;-44
2021/04/20 11:33:53;;;;;;;3.30;2.03;;;19.30;76.60;;;;;;5070304;28;20509;-44
2021/04/20 11:36:27;;;;;;;4.78;1.60;;;19.40;78.30;;;;;;5071668;28;20040;-44
2021/04/20 11:39:06;;;;;;;4.55;1.50;;;19.30;78.50;;;;;;5054880;28;20129;-44
2021/04/20 11:41:54;;;;;;;2.55;1.50;;;19.40;76.80;;;;;;5071100;28;20144;-44
2021/04/20 11:44:23;;;;;;;1.75;1.40;;;19.60;77.40;;;;;;5071828;28;20063;-44
2021/04/20 11:46:52;;;;;;;2.47;1.35;;;19.40;73.30;;;;;;5054704;28;20049;-44
2021/04/20 11:49:26;;;;;;;2.63;1.73;;;19.20;75.10;;;;;;5071692;28;20091;-44
2021/04/20 11:51:57;;;;;;;2.58;1.10;;;18.70;74.30;;;;;;5072200;28;20045;-45
2021/04/20 11:54:34;;;;;;;2.10;1.60;;;18.70;74.40;;;;;;5071843;28;20098;-45
2021/04/20 11:57:06;;;;;;;3.33;1.35;;;18.60;74.40;;;;;;5070227;28;20044;-44
2021/04/20 11:59:34;;;;;;;3.08;1.63;;;18.40;74.60;;;;;;5075342;28;20052;-45
2021/04/20 12:02:03;;;;;;;2.83;1.30;;;18.40;75.20;;;;;;5075880;28;20052;-44
2021/04/20 12:04:35;;;;;;;2.20;1.55;;;18.30;75.70;;;;;;5064553;28;20127;-45
2021/04/20 12:07:02;;;;;;;1.83;1.30;;;18.50;75.90;;;;;;5061630;28;20522;-45
2021/04/20 12:09:38;;;;;;;2.83;1.27;;;18.80;75.40;;;;;;5075131;28;20079;-44
2021/04/20 12:12:07;;;;;;;2.63;1.40;;;18.70;73.70;;;;;;5072020;28;20041;-45
2021/04/20 12:14:37;;;;;;;2.20;1.05;;;19.00;74.30;;;;;;5073073;28;20052;-44
2021/04/20 12:17:05;;;;;;;1.67;1.00;;;19.20;73.80;;;;;;5075255;28;20048;-44
2021/04/20 12:19:36;;;;;;;2.25;1.58;;;19.40;74.00;;;;;;5074957;28;20045;-44
2021/04/20 12:22:06;;;;;;;3.47;2.00;;;19.50;74.10;;;;;;5071553;28;20114;-44
2021/04/20 12:24:41;;;;;;;6.95;2.55;;;19.60;75.00;;;;;;5074861;28;20117;-45
2021/04/20 12:27:11;;;;;;;3.15;1.98;;;19.60;76.00;;;;;;5073804;28;20473;-44
2021/04/20 12:29:44;;;;;;;2.22;1.20;;;19.60;74.10;;;;;;5072889;28;20071;-44
2021/04/20 12:32:16;;;;;;;1.98;1.40;;;19.60;73.30;;;;;;5074180;28;20139;-44
2021/04/20 12:34:51;;;;;;;1.95;1.30;;;19.60;72.50;;;;;;5074687;28;20048;-44
2021/04/20 12:37:37;;;;;;;2.53;1.30;;;19.60;72.40;;;;;;5066100;28;20494;-44
2021/04/20 12:40:09;;;;;;;3.15;1.48;;;19.70;72.90;;;;;;5057242;28;20045;-45
2021/04/20 12:42:54;;;;;;;2.63;1.55;;;19.70;71.90;;;;;;5073470;28;20131;-44
2021/04/20 12:45:26;;;;;;;2.70;1.30;;;19.40;71.40;;;;;;5056513;28;20041;-44
2021/04/20 12:48:00;;;;;;;2.42;1.35;;;19.40;72.80;;;;;;5074071;28;20082;-45
2021/04/20 12:50:35;;;;;;;1.83;1.10;;;19.40;72.80;;;;;;5056795;28;20044;-44
2021/04/20 12:53:07;;;;;;;2.55;1.75;;;19.40;72.60;;;;;;5074889;28;20042;-45
2021/04/20 12:55:39;;;;;;;2.38;1.35;;;19.20;71.60;;;;;;5074188;28;20056;-44
2021/04/20 12:58:11;;;;;;;3.05;1.55;;;19.20;72.20;;;;;;5073599;28;20044;-44
2021/04/20 13:00:41;;;;;;;3.40;1.95;;;19.10;71.60;;;;;;5073002;28;20045;-44
2021/04/20 13:03:09;;;;;;;2.08;1.20;;;19.10;71.90;;;;;;5074444;28;20079;-44
2021/04/20 13:05:40;;;;;;;2.70;1.65;;;19.10;71.00;;;;;;5056567;28;20551;-45
2021/04/20 13:08:11;;;;;;;2.63;1.70;;;19.20;71.30;;;;;;5072995;28;20403;-44
2021/04/20 13:10:43;;;;;;;1.58;1.05;;;19.20;71.70;;;;;;5074119;28;20518;-44
2021/04/20 13:13:17;;;;;;;3.05;1.85;;;19.20;70.60;;;;;;5074423;28;20098;-44
2021/04/20 13:15:46;;;;;;;3.22;1.85;;;19.20;71.40;;;;;;5073717;28;20414;-44
2021/04/20 13:18:23;;;;;;;1.90;1.38;;;19.10;70.70;;;;;;5056662;28;20137;-47
2021/04/20 13:20:58;;;;;;;2.30;1.35;;;18.90;70.90;;;;;;5073878;28;20080;-44
2021/04/20 13:23:32;;;;;;;3.15;2.20;;;18.90;71.70;;;;;;5073149;28;20179;-44
2021/04/20 13:26:11;;;;;;;2.55;1.70;;;19.00;71.20;;;;;;5068738;28;20053;-44
2021/04/20 13:28:40;;;;;;;2.75;1.55;;;19.10;70.90;;;;;;5053524;28;20446;-44